New Wells, Missouri
Current Conditions -  °F | °C
As of 3:53 PM on Sunday 21 Dec 2014 (Local Time) from KCGI Reporting Station
Few Clouds Few Clouds  
Wind Chill: 42°   Ceiling: Unl
Heat Index: 46°   Visibility: 10mi
Dew Point: 35°   Wind: 8mph
Humidity: 66%   Direction: 140°SE
Pressure: 30.07"   Gusts: NA
Location:  37.5371°N, 89.5821°W
Report Text: KCGI 212153Z 14007KT 10SM FEW050 08/02 A3007 RMK AO2 SLP184 T00780017
Loading
Personal Weather Stations






























Interactive Weather Map New forecast layout! Learn more

10-Day Weather Forecast

Advertisements
Track Severe Weather on mobile